Bodegraven, Netherlands
Current Conditions -  °F | °C
As of 8:55 AM on Sunday 26 Oct 2014 (Local Time) from EHAM Reporting Station
Broken Clouds Broken Clouds  
Wind Chill: 54°   Ceiling: 4200
Heat Index: 54°   Visibility: 6mi
Dew Point: 52°   Wind: 10mph
Humidity: 94%   Direction: 200°SSW
Pressure: 30.18"   Gusts: NA
Location:  52.08°N, 4.75°E
Report Text: EHAM 260655Z 20009KT 9999 FEW028 BKN042 12/11 Q1022 NOSIG
Loading
Personal Weather Stations






























Interactive Weather Map
Tropical Storm Tracking
New forecast layout! Learn more

10-Day Weather Forecast

Advertisements
Track Severe Weather on mobile